Time;durP1;ratioP1;P1;durP2;ratioP2;P2;SDS_P1;SDS_P2;PMS_P1;PMS_P2;Temp;Humidity;BMP_temperature;BMP_pressure;BME280_temperature;BME280_humidity;BME280_pressure;Samples;Min_cycle;Max_cycle;Signal;HPM_P1;HPM_P2
2022/12/26 00:02:05;;;;;;;7.27;6.50;;;4.70;99.90;;;;;;5033783;28;20250;-48
2022/12/26 00:04:32;;;;;;;7.30;6.70;;;4.70;99.90;;;;;;5033825;28;20245;-48
2022/12/26 00:07:01;;;;;;;9.03;6.30;;;4.70;99.90;;;;;;5030105;28;20261;-49
2022/12/26 00:09:28;;;;;;;24.93;7.30;;;4.70;99.90;;;;;;5014139;28;20208;-48
2022/12/26 00:11:57;;;;;;;7.47;6.83;;;4.70;99.90;;;;;;5025016;28;20204;-48
2022/12/26 00:14:24;;;;;;;5.80;5.33;;;4.70;99.90;;;;;;5033799;28;20713;-47
2022/12/26 00:16:51;;;;;;;10.93;7.40;;;4.70;99.90;;;;;;5022639;28;20844;-48
2022/12/26 00:19:19;;;;;;;7.10;6.40;;;4.60;99.90;;;;;;5004255;28;20213;-47
2022/12/26 00:21:46;;;;;;;8.20;7.40;;;4.60;99.90;;;;;;5010089;28;20259;-48
2022/12/26 00:24:13;;;;;;;13.90;7.30;;;4.60;99.90;;;;;;5027559;28;20218;-48
2022/12/26 00:26:40;;;;;;;8.50;7.47;;;4.70;99.90;;;;;;5033555;28;20204;-49
2022/12/26 00:29:07;;;;;;;10.47;6.80;;;4.70;99.90;;;;;;5033718;28;20205;-48
2022/12/26 00:31:35;;;;;;;9.47;8.10;;;4.70;99.90;;;;;;5016185;28;20203;-48
2022/12/26 00:34:03;;;;;;;11.57;8.43;;;4.70;99.90;;;;;;5006675;28;20209;-47
2022/12/26 00:36:33;;;;;;;7.63;6.60;;;4.70;99.90;;;;;;5017220;28;20287;-47
2022/12/26 00:39:02;;;;;;;10.97;6.97;;;4.60;99.90;;;;;;5013656;28;20279;-48
2022/12/26 00:41:29;;;;;;;6.23;5.63;;;4.50;99.90;;;;;;5013796;28;20211;-47
2022/12/26 00:43:57;;;;;;;8.33;7.53;;;4.50;99.90;;;;;;5014672;28;20223;-48
2022/12/26 00:46:24;;;;;;;10.90;8.60;;;4.50;99.90;;;;;;5017739;28;20614;-48
2022/12/26 00:48:51;;;;;;;8.77;7.13;;;4.50;99.90;;;;;;5013416;28;20211;-48
2022/12/26 00:51:20;;;;;;;5.77;5.27;;;4.50;99.90;;;;;;5022095;28;20254;-48
2022/12/26 00:53:48;;;;;;;5.53;5.07;;;4.50;99.90;;;;;;5020973;28;20611;-47
2022/12/26 00:56:15;;;;;;;5.60;5.13;;;4.50;99.90;;;;;;5011831;28;20299;-48
2022/12/26 00:58:42;;;;;;;12.40;6.20;;;4.50;99.90;;;;;;5012629;28;20689;-49
2022/12/26 01:01:13;;;;;;;5.40;5.00;;;4.40;99.90;;;;;;5019440;28;20201;-52
2022/12/26 01:03:40;;;;;;;7.47;5.77;;;4.40;99.90;;;;;;5012630;28;20232;-48
2022/12/26 01:06:08;;;;;;;13.63;6.60;;;4.40;99.90;;;;;;5002918;28;20232;-48
2022/12/26 01:08:34;;;;;;;16.27;6.67;;;4.40;99.90;;;;;;5012907;28;20201;-48
2022/12/26 01:11:07;;;;;;;17.73;8.20;;;4.50;99.90;;;;;;5013033;28;20202;-48
2022/12/26 01:13:35;;;;;;;21.73;8.50;;;4.60;99.90;;;;;;5012695;28;20269;-48
2022/12/26 01:16:02;;;;;;;8.83;7.33;;;4.70;99.90;;;;;;5012680;28;20222;-48
2022/12/26 01:18:30;;;;;;;8.70;7.63;;;4.70;99.90;;;;;;5018440;28;20211;-48
2022/12/26 01:21:01;;;;;;;9.03;6.43;;;4.70;99.90;;;;;;5012349;28;20209;-49
2022/12/26 01:23:29;;;;;;;7.63;6.83;;;4.70;99.90;;;;;;5017992;28;20220;-48
2022/12/26 01:25:56;;;;;;;9.57;6.80;;;4.70;99.90;;;;;;5032367;28;20220;-47
2022/12/26 01:28:24;;;;;;;6.53;5.93;;;4.70;99.90;;;;;;5032339;28;20208;-48
2022/12/26 01:30:51;;;;;;;17.57;6.77;;;4.70;99.90;;;;;;5021665;28;20255;-48
2022/12/26 01:33:18;;;;;;;6.23;5.53;;;4.70;99.90;;;;;;5023862;28;20192;-47
2022/12/26 01:35:52;;;;;;;9.03;5.97;;;4.70;99.90;;;;;;5032310;28;20274;-48
2022/12/26 01:38:20;;;;;;;8.53;6.80;;;4.80;99.90;;;;;;5020750;28;20210;-47
2022/12/26 01:40:47;;;;;;;19.90;7.40;;;4.90;99.90;;;;;;5020657;28;20197;-48
2022/12/26 01:43:16;;;;;;;10.10;5.93;;;4.90;99.90;;;;;;5014987;28;20262;-48
2022/12/26 01:45:49;;;;;;;5.30;4.90;;;4.80;99.90;;;;;;5023740;28;20222;-48
2022/12/26 01:48:20;;;;;;;13.00;6.33;;;4.80;99.90;;;;;;5031919;28;20601;-48
2022/12/26 01:50:52;;;;;;;12.47;6.00;;;4.70;99.90;;;;;;5032069;28;20208;-49
2022/12/26 01:53:23;;;;;;;8.87;5.80;;;4.70;99.90;;;;;;5031783;28;20204;-48
2022/12/26 01:55:54;;;;;;;6.13;5.63;;;4.70;99.90;;;;;;5002364;28;20311;-49
2022/12/26 01:58:27;;;;;;;9.50;4.83;;;4.80;99.90;;;;;;5018914;28;20727;-48
2022/12/26 02:00:56;;;;;;;5.30;4.90;;;4.80;99.90;;;;;;5031864;28;20209;-48
2022/12/26 02:06:09;;;;;;;5.47;4.97;;;4.70;99.90;;;;;;5031866;28;20274;-48
2022/12/26 02:08:38;;;;;;;6.10;5.57;;;4.80;99.90;;;;;;5022382;28;20205;-48
2022/12/26 02:11:12;;;;;;;7.57;6.17;;;4.70;99.90;;;;;;5020057;28;20200;-48
2022/12/26 02:13:40;;;;;;;6.77;6.17;;;4.80;99.90;;;;;;5023410;28;20622;-47
2022/12/26 02:16:12;;;;;;;6.40;5.80;;;4.80;99.90;;;;;;5020575;28;20222;-48
2022/12/26 02:18:39;;;;;;;6.13;5.47;;;4.80;99.90;;;;;;5023265;28;20208;-49
2022/12/26 02:21:22;;;;;;;6.97;5.60;;;4.70;99.90;;;;;;5014933;28;20741;-49
2022/12/26 02:24:29;;;;;;;6.37;5.77;;;4.80;99.90;;;;;;5029893;28;20221;-48
2022/12/26 02:27:21;;;;;;;12.83;6.10;;;4.80;99.90;;;;;;4953993;29;20207;-48
2022/12/26 02:30:33;;;;;;;6.60;6.10;;;4.70;99.90;;;;;;5028882;28;20268;-48
2022/12/26 02:33:33;;;;;;;7.50;5.97;;;4.70;99.90;;;;;;5006313;28;20201;-49
2022/12/26 02:36:32;;;;;;;5.13;4.80;;;4.60;99.90;;;;;;5009391;28;20289;-47
2022/12/26 02:39:12;;;;;;;11.17;6.77;;;4.60;99.90;;;;;;5038147;28;20261;-48
2022/12/26 02:41:47;;;;;;;9.27;5.67;;;4.50;99.90;;;;;;5038292;28;20202;-49
2022/12/26 02:47:14;;;;;;;5.50;5.07;;;4.40;99.90;;;;;;5007064;28;20335;-49
2022/12/26 03:17:18;;;;;;;9.50;5.17;;;4.00;99.90;;;;;;5034250;28;20222;-48
2022/12/26 03:18:23;;;;;;;6.77;5.13;;;4.00;99.90;;;;;;5011915;28;20208;-49
2022/12/26 03:20:50;;;;;;;6.27;5.77;;;4.00;99.90;;;;;;5025106;28;20208;-48
2022/12/26 03:23:21;;;;;;;12.20;5.23;;;3.90;99.90;;;;;;5017931;28;20221;-48
2022/12/26 03:28:37;;;;;;;19.40;5.30;;;3.60;99.90;;;;;;5006122;28;20248;-48
2022/12/26 03:31:05;;;;;;;5.77;5.27;;;3.60;99.90;;;;;;5019102;28;20192;-48
2022/12/26 03:36:31;;;;;;;18.80;5.73;;;3.50;99.90;;;;;;5029379;28;20219;-48
2022/12/26 03:39:12;;;;;;;4.47;4.17;;;3.40;99.90;;;;;;5034375;28;20633;-48
2022/12/26 04:44:08;;;;;;;3.63;3.43;;;2.90;99.90;;;;;;5034266;28;20704;-48
2022/12/26 04:46:38;;;;;;;3.50;3.40;;;2.90;99.90;;;;;;5027290;28;20295;-50
2022/12/26 04:51:56;;;;;;;4.70;3.97;;;3.00;99.90;;;;;;5028209;28;20228;-48
2022/12/26 04:54:23;;;;;;;4.00;3.70;;;2.90;99.90;;;;;;5046746;28;20256;-48
2022/12/26 04:56:50;;;;;;;5.10;4.67;;;3.00;99.90;;;;;;5029038;28;20200;-56
2022/12/26 04:59:18;;;;;;;4.80;4.47;;;3.00;99.90;;;;;;5037396;28;20201;-51
2022/12/26 05:10:05;;;;;;;9.70;4.63;;;2.90;99.90;;;;;;5046411;28;20250;-49
2022/12/26 05:12:32;;;;;;;4.50;4.20;;;2.80;99.90;;;;;;5052339;28;20690;-47
2022/12/26 05:14:59;;;;;;;4.83;4.33;;;2.80;99.90;;;;;;5038324;28;20274;-48
2022/12/26 05:28:42;;;;;;;4.37;4.07;;;2.90;99.90;;;;;;5032673;28;20275;-49
2022/12/26 05:31:09;;;;;;;4.87;4.50;;;2.90;99.90;;;;;;5032368;28;20744;-48
2022/12/26 05:36:25;;;;;;;4.90;4.50;;;2.80;99.90;;;;;;5022344;28;20215;-48
2022/12/26 05:38:54;;;;;;;4.30;3.90;;;2.80;99.90;;;;;;5032128;28;20622;-47
2022/12/26 05:41:22;;;;;;;4.97;4.67;;;2.80;99.90;;;;;;5019614;28;20204;-47
2022/12/26 05:43:49;;;;;;;3.70;3.43;;;2.90;99.90;;;;;;5022601;28;20219;-47
2022/12/26 05:46:15;;;;;;;3.27;3.07;;;2.90;99.90;;;;;;5043048;28;20251;-48
2022/12/26 05:48:44;;;;;;;4.07;3.77;;;2.90;99.90;;;;;;5051949;28;20208;-48
2022/12/26 05:51:11;;;;;;;3.10;2.90;;;2.90;99.90;;;;;;5043677;28;20201;-48
2022/12/26 05:53:38;;;;;;;2.73;2.63;;;2.80;99.90;;;;;;5029850;28;20266;-48
2022/12/26 05:56:07;;;;;;;2.60;2.50;;;2.80;99.90;;;;;;5031669;28;20224;-48
2022/12/26 05:58:34;;;;;;;2.83;2.73;;;2.70;99.90;;;;;;5024006;28;20204;-47
2022/12/26 06:01:07;;;;;;;3.00;2.87;;;2.80;99.90;;;;;;5032173;28;20207;-48
2022/12/26 06:03:35;;;;;;;4.07;3.63;;;2.80;99.90;;;;;;5031761;28;20277;-47
2022/12/26 06:06:04;;;;;;;3.43;3.23;;;2.70;99.90;;;;;;5065394;22;20318;-51
2022/12/26 06:08:31;;;;;;;2.43;2.33;;;2.70;99.90;;;;;;5031210;28;20694;-51
2022/12/26 06:10:58;;;;;;;4.00;3.70;;;2.70;99.90;;;;;;5024173;28;20204;-51
2022/12/26 06:13:25;;;;;;;3.20;3.10;;;2.70;99.90;;;;;;5031884;28;20208;-51
2022/12/26 06:15:52;;;;;;;2.80;2.70;;;2.70;99.90;;;;;;5015020;28;20228;-51
2022/12/26 06:18:19;;;;;;;2.83;2.63;;;2.80;99.90;;;;;;5012139;28;20204;-51
2022/12/26 06:20:46;;;;;;;3.93;3.67;;;2.70;99.90;;;;;;5012136;28;20209;-51
2022/12/26 06:23:14;;;;;;;3.73;3.00;;;2.80;99.90;;;;;;5012077;28;20200;-51
2022/12/26 06:25:41;;;;;;;2.50;2.40;;;2.90;99.90;;;;;;5021798;28;20291;-51
2022/12/26 06:28:08;;;;;;;2.90;2.63;;;3.00;99.90;;;;;;5031474;28;20197;-51
2022/12/26 06:30:35;;;;;;;1.73;1.67;;;3.10;99.90;;;;;;5031848;28;20258;-51
2022/12/26 06:33:02;;;;;;;2.53;1.80;;;3.20;99.90;;;;;;5013580;28;20205;-51
2022/12/26 06:35:29;;;;;;;1.23;0.90;;;3.30;99.90;;;;;;5012227;28;20229;-51
2022/12/26 06:37:56;;;;;;;1.97;1.20;;;3.60;99.90;;;;;;5012095;28;20255;-52
2022/12/26 06:40:25;;;;;;;2.83;1.97;;;3.90;99.90;;;;;;5012575;28;20204;-51
2022/12/26 06:42:51;;;;;;;1.53;1.40;;;4.30;99.90;;;;;;5030457;28;20243;-51
2022/12/26 06:45:18;;;;;;;1.53;1.37;;;4.60;99.90;;;;;;5034391;28;20267;-51
2022/12/26 06:47:46;;;;;;;1.03;1.03;;;4.80;99.90;;;;;;5050670;28;20213;-51
2022/12/26 06:50:13;;;;;;;1.17;0.87;;;5.10;99.90;;;;;;5012218;28;20294;-50
2022/12/26 06:52:40;;;;;;;1.37;1.13;;;5.40;99.90;;;;;;5011707;28;20708;-51
2022/12/26 06:55:08;;;;;;;0.80;0.50;;;5.50;99.90;;;;;;5011331;28;20204;-51
2022/12/26 06:57:37;;;;;;;0.83;0.83;;;5.60;99.90;;;;;;5013268;28;20214;-51
2022/12/26 07:00:05;;;;;;;2.20;0.83;;;5.60;99.90;;;;;;5028808;28;20578;-51
2022/12/26 07:02:31;;;;;;;0.60;0.60;;;5.60;99.90;;;;;;5031008;28;20700;-52
2022/12/26 07:04:58;;;;;;;0.77;0.70;;;5.50;99.90;;;;;;5031351;28;20220;-51
2022/12/26 07:07:25;;;;;;;0.60;0.60;;;5.50;99.90;;;;;;5014799;28;20323;-51
2022/12/26 07:09:53;;;;;;;1.23;0.60;;;5.60;99.90;;;;;;5015187;28;20209;-51
2022/12/26 07:12:20;;;;;;;0.70;0.70;;;5.60;99.90;;;;;;5014574;28;20205;-52
2022/12/26 07:14:52;;;;;;;0.87;0.87;;;5.60;99.90;;;;;;5031436;28;20292;-51
2022/12/26 07:17:19;;;;;;;0.50;0.50;;;5.60;99.90;;;;;;5033334;28;20265;-51
2022/12/26 07:19:46;;;;;;;0.80;0.60;;;5.60;99.90;;;;;;5034564;28;20197;-51
2022/12/26 07:22:13;;;;;;;1.03;0.80;;;5.80;99.90;;;;;;5026790;28;20213;-51
2022/12/26 07:24:40;;;;;;;0.60;0.60;;;5.80;99.90;;;;;;5031548;28;20681;-52
2022/12/26 07:27:07;;;;;;;0.40;0.40;;;5.80;99.90;;;;;;5027322;28;20280;-52
2022/12/26 07:29:34;;;;;;;1.30;0.70;;;5.90;99.90;;;;;;5030492;28;20257;-51
2022/12/26 07:32:03;;;;;;;0.60;0.60;;;5.90;99.90;;;;;;5029982;28;20279;-51
2022/12/26 07:34:30;;;;;;;6.27;3.57;;;6.00;99.90;;;;;;5031896;28;20652;-52
2022/12/26 07:36:58;;;;;;;20.07;7.10;;;6.10;99.90;;;;;;5033584;28;20216;-51
2022/12/26 07:39:25;;;;;;;6.03;2.20;;;6.20;99.90;;;;;;5028330;28;20681;-52
2022/12/26 07:41:56;;;;;;;35.30;9.73;;;6.30;99.90;;;;;;5016929;28;20272;-51
2022/12/26 07:44:24;;;;;;;5.77;3.20;;;6.40;99.90;;;;;;5031699;28;20226;-51
2022/12/26 07:46:50;;;;;;;0.87;0.77;;;6.50;99.90;;;;;;5030336;28;20281;-51
2022/12/26 07:49:19;;;;;;;0.60;0.50;;;6.50;99.90;;;;;;5032711;28;20200;-52
2022/12/26 07:51:46;;;;;;;1.23;0.70;;;6.60;99.90;;;;;;5034076;28;20275;-51
2022/12/26 07:54:14;;;;;;;0.63;0.60;;;6.60;99.90;;;;;;5033458;28;20204;-52
2022/12/26 07:56:41;;;;;;;1.10;0.60;;;6.70;99.90;;;;;;5020961;28;20223;-51
2022/12/26 07:59:14;;;;;;;2.00;0.77;;;6.60;99.90;;;;;;5014676;28;20264;-52
2022/12/26 08:01:41;;;;;;;1.03;0.83;;;6.70;99.90;;;;;;5014332;28;20209;-52
2022/12/26 08:04:08;;;;;;;4.03;1.37;;;6.80;99.90;;;;;;5013846;28;20215;-50
2022/12/26 08:06:37;;;;;;;0.67;0.67;;;6.80;99.90;;;;;;5027158;28;20228;-52
2022/12/26 08:09:04;;;;;;;1.47;1.37;;;6.80;99.90;;;;;;5025952;28;20710;-52
2022/12/26 08:11:34;;;;;;;1.43;1.17;;;6.90;99.90;;;;;;5033993;28;20631;-53
2022/12/26 08:14:01;;;;;;;1.43;1.10;;;7.00;99.90;;;;;;5017747;28;20268;-52
2022/12/26 08:16:30;;;;;;;0.90;0.90;;;7.10;99.90;;;;;;5020098;28;20232;-52
2022/12/26 08:18:57;;;;;;;1.00;1.00;;;7.30;99.90;;;;;;5033536;28;20206;-53
2022/12/26 08:21:25;;;;;;;0.70;0.70;;;7.40;99.90;;;;;;5033433;28;20208;-52
2022/12/26 08:23:53;;;;;;;0.97;0.80;;;7.50;99.90;;;;;;5033108;28;20291;-52
2022/12/26 08:26:22;;;;;;;0.73;0.73;;;7.70;99.90;;;;;;5033109;28;20225;-53
2022/12/26 08:28:50;;;;;;;1.20;1.20;;;7.80;99.90;;;;;;5033666;28;20287;-53
2022/12/26 08:31:18;;;;;;;2.10;0.73;;;7.90;99.90;;;;;;5025970;28;20208;-50
2022/12/26 08:33:45;;;;;;;0.80;0.70;;;7.90;99.90;;;;;;5023380;28;20202;-51
2022/12/26 08:36:15;;;;;;;1.63;0.67;;;7.90;99.90;;;;;;5019136;28;20288;-50
2022/12/26 08:38:43;;;;;;;0.70;0.70;;;8.00;99.90;;;;;;5033278;28;20208;-50
2022/12/26 08:41:11;;;;;;;0.83;0.83;;;8.10;99.90;;;;;;5033094;28;20254;-50
2022/12/26 08:43:38;;;;;;;1.63;0.60;;;8.10;99.90;;;;;;5032708;28;20289;-50
2022/12/26 08:46:10;;;;;;;0.57;0.57;;;8.10;99.90;;;;;;5032117;28;20269;-50
2022/12/26 08:48:39;;;;;;;0.67;0.60;;;8.20;99.90;;;;;;5021442;28;20228;-51
2022/12/26 08:51:08;;;;;;;0.70;0.70;;;8.20;99.90;;;;;;5032271;28;20206;-51
2022/12/26 08:53:36;;;;;;;0.53;0.53;;;8.20;99.90;;;;;;5032590;28;20298;-50
2022/12/26 08:56:05;;;;;;;2.97;0.70;;;8.20;99.90;;;;;;5032151;28;20214;-50
2022/12/26 08:58:35;;;;;;;2.33;0.60;;;8.20;99.90;;;;;;5032968;28;20208;-51
2022/12/26 09:01:09;;;;;;;0.60;0.60;;;8.10;99.90;;;;;;5031057;28;20273;-50
2022/12/26 09:03:39;;;;;;;1.23;0.70;;;8.00;99.90;;;;;;5028321;28;20203;-51
2022/12/26 09:06:07;;;;;;;0.50;0.50;;;7.90;99.90;;;;;;5019618;28;20269;-50
2022/12/26 09:08:35;;;;;;;0.82;0.70;;;8.00;99.90;;;;;;5023030;28;20501;-51
2022/12/26 09:11:04;;;;;;;0.90;0.90;;;8.10;99.90;;;;;;5017560;28;20254;-51
2022/12/26 09:13:31;;;;;;;0.70;0.70;;;8.20;99.90;;;;;;5024165;28;20691;-50
2022/12/26 09:16:07;;;;;;;0.97;0.50;;;8.60;99.90;;;;;;5030472;28;20228;-51
2022/12/26 09:18:34;;;;;;;0.60;0.60;;;8.70;99.90;;;;;;5029321;28;20204;-51
2022/12/26 09:21:02;;;;;;;0.70;0.70;;;8.90;99.90;;;;;;5022749;28;20204;-50
2022/12/26 09:23:29;;;;;;;1.13;0.80;;;9.10;99.90;;;;;;5020404;28;20212;-51
2022/12/26 09:25:56;;;;;;;1.70;0.43;;;9.20;99.90;;;;;;5022225;28;20785;-52
2022/12/26 09:28:23;;;;;;;0.37;0.37;;;9.20;99.90;;;;;;5027020;28;20710;-51
2022/12/26 09:30:50;;;;;;;2.23;0.60;;;9.30;99.90;;;;;;5023578;28;20212;-51
2022/12/26 09:33:19;;;;;;;0.60;0.43;;;9.10;99.90;;;;;;5030104;28;20216;-51
2022/12/26 09:35:46;;;;;;;0.60;0.60;;;9.00;99.90;;;;;;5027742;28;20270;-51
2022/12/26 09:38:13;;;;;;;0.50;0.50;;;9.20;99.90;;;;;;5020791;28;20212;-50
2022/12/26 09:40:51;;;;;;;0.30;0.30;;;9.30;99.90;;;;;;5022576;28;20257;-51
2022/12/26 09:43:26;;;;;;;0.70;0.70;;;9.20;99.90;;;;;;5023428;28;20200;-51
2022/12/26 09:46:05;;;;;;;0.50;0.50;;;9.20;99.90;;;;;;5031653;28;20633;-50
2022/12/26 09:48:40;;;;;;;0.40;0.40;;;9.20;99.90;;;;;;5023139;28;20216;-51
2022/12/26 09:51:10;;;;;;;0.30;0.30;;;9.30;99.90;;;;;;5024850;28;20255;-50
2022/12/26 09:53:42;;;;;;;0.50;0.50;;;9.30;99.90;;;;;;5031386;28;20705;-50
2022/12/26 09:56:15;;;;;;;0.63;0.63;;;9.30;99.90;;;;;;5020078;28;20786;-51
2022/12/26 09:58:46;;;;;;;0.70;0.70;;;9.40;99.90;;;;;;5026204;28;20196;-50
2022/12/26 10:01:15;;;;;;;1.93;0.40;;;9.50;99.90;;;;;;5027588;28;20617;-50
2022/12/26 10:03:46;;;;;;;0.70;0.70;;;9.60;99.90;;;;;;5028758;28;20205;-51
2022/12/26 10:06:16;;;;;;;0.83;0.57;;;9.80;99.90;;;;;;5018817;28;20715;-51
2022/12/26 10:09:15;;;;;;;0.47;0.47;;;9.90;99.90;;;;;;5029633;28;20200;-51
2022/12/26 10:12:01;;;;;;;0.40;0.40;;;10.00;99.90;;;;;;5008911;28;20206;-51
2022/12/26 10:14:36;;;;;;;0.70;0.70;;;10.00;99.90;;;;;;5027344;28;20318;-51
2022/12/26 10:17:08;;;;;;;0.40;0.40;;;10.00;99.90;;;;;;5021547;28;20365;-51
2022/12/26 10:19:49;;;;;;;0.90;0.47;;;10.00;99.90;;;;;;5022106;28;20254;-51
2022/12/26 10:22:31;;;;;;;0.40;0.40;;;9.90;99.90;;;;;;5025956;28;20200;-50
2022/12/26 10:25:01;;;;;;;0.40;0.40;;;9.90;99.90;;;;;;5031304;28;20703;-51
2022/12/26 10:27:32;;;;;;;1.20;0.40;;;9.90;99.90;;;;;;5031180;28;20220;-51
2022/12/26 10:30:03;;;;;;;0.57;0.57;;;10.00;99.90;;;;;;5018732;28;20207;-51
2022/12/26 10:32:36;;;;;;;0.40;0.40;;;10.10;99.90;;;;;;5023845;28;20203;-51
2022/12/26 10:35:21;;;;;;;0.60;0.60;;;10.20;99.90;;;;;;5021764;28;20619;-51
2022/12/26 10:37:49;;;;;;;0.50;0.50;;;10.20;99.90;;;;;;5030079;28;20262;-51
2022/12/26 10:40:22;;;;;;;1.60;0.40;;;10.30;99.90;;;;;;5029597;28;20205;-51
2022/12/26 10:42:52;;;;;;;0.40;0.40;;;10.40;99.90;;;;;;5032829;28;20656;-50
2022/12/26 10:45:32;;;;;;;0.30;0.30;;;10.40;99.90;;;;;;5030845;28;20601;-51
2022/12/26 10:47:59;;;;;;;2.00;0.27;;;10.40;99.90;;;;;;5019020;28;20642;-50
2022/12/26 10:50:29;;;;;;;0.40;0.40;;;10.40;99.90;;;;;;5017670;28;20206;-51
2022/12/26 10:52:58;;;;;;;1.60;0.70;;;10.40;99.90;;;;;;5029259;28;20204;-51
2022/12/26 10:55:28;;;;;;;1.03;0.70;;;10.40;99.90;;;;;;5030901;28;20224;-51
2022/12/26 10:57:57;;;;;;;5.67;3.30;;;10.40;99.90;;;;;;5029322;28;20627;-51
2022/12/26 11:00:27;;;;;;;2.60;2.40;;;10.40;99.90;;;;;;5025221;28;20212;-52
2022/12/26 11:03:06;;;;;;;5.33;2.10;;;10.30;99.90;;;;;;5021048;28;20202;-52
2022/12/26 11:05:37;;;;;;;2.20;2.03;;;10.20;99.90;;;;;;5027264;28;20643;-57
2022/12/26 11:08:10;;;;;;;3.87;2.53;;;10.30;99.90;;;;;;5026394;28;20197;-52
2022/12/26 11:10:37;;;;;;;2.43;1.63;;;10.30;99.90;;;;;;5031940;28;20196;-51
2022/12/26 11:13:08;;;;;;;0.93;0.87;;;10.10;99.90;;;;;;5031473;28;20312;-51
2022/12/26 11:15:39;;;;;;;3.20;0.50;;;10.20;99.90;;;;;;5017561;28;20315;-52
2022/12/26 11:18:20;;;;;;;1.77;1.50;;;10.40;99.90;;;;;;5030821;28;20566;-52
2022/12/26 11:20:50;;;;;;;2.70;2.30;;;10.50;99.90;;;;;;5031581;28;20703;-51
2022/12/26 11:23:30;;;;;;;3.00;2.90;;;10.40;99.90;;;;;;5020987;28;20206;-52
2022/12/26 11:25:59;;;;;;;3.60;3.10;;;10.30;99.90;;;;;;5025309;28;20220;-52
2022/12/26 11:28:31;;;;;;;5.27;4.87;;;10.10;99.90;;;;;;5028665;28;20208;-52
2022/12/26 11:31:00;;;;;;;7.73;7.03;;;9.90;99.90;;;;;;5024086;28;20287;-53
2022/12/26 11:33:33;;;;;;;7.00;6.40;;;9.70;99.90;;;;;;5033133;28;20203;-52
2022/12/26 11:36:09;;;;;;;13.00;6.73;;;9.60;99.90;;;;;;5026230;28;20806;-51
2022/12/26 11:38:46;;;;;;;4.07;3.77;;;9.40;99.90;;;;;;5027326;28;20210;-51
2022/12/26 11:41:31;;;;;;;4.07;3.67;;;8.90;99.90;;;;;;5025930;28;20204;-52
2022/12/26 11:44:02;;;;;;;3.93;3.63;;;8.90;99.90;;;;;;5025840;28;20298;-52
2022/12/26 11:46:36;;;;;;;3.20;3.00;;;8.80;99.90;;;;;;5032192;28;20277;-52
2022/12/26 11:49:04;;;;;;;3.73;3.53;;;8.80;99.90;;;;;;5023456;28;20223;-52
2022/12/26 11:51:40;;;;;;;4.50;4.10;;;8.70;99.90;;;;;;5033106;28;20255;-51
2022/12/26 11:54:29;;;;;;;3.70;3.40;;;8.60;99.90;;;;;;5029728;28;20202;-51
2022/12/26 11:57:17;;;;;;;3.60;3.40;;;8.60;99.90;;;;;;5019842;28;20214;-52
2022/12/26 11:59:45;;;;;;;2.50;2.40;;;8.50;99.90;;;;;;5032536;28;20284;-51
2022/12/26 12:02:23;;;;;;;4.63;2.70;;;8.60;99.90;;;;;;5025873;28;20205;-52
2022/12/26 12:04:53;;;;;;;2.67;2.47;;;8.50;99.90;;;;;;5033379;28;20209;-51
2022/12/26 12:08:01;;;;;;;2.93;2.67;;;8.50;99.90;;;;;;5056900;22;20276;-49
2022/12/26 12:10:48;;;;;;;2.40;2.30;;;8.60;99.90;;;;;;5030840;28;20204;-50
2022/12/26 12:13:41;;;;;;;3.70;2.53;;;8.60;99.90;;;;;;5018857;28;20208;-49
2022/12/26 12:16:22;;;;;;;3.73;3.43;;;8.50;99.90;;;;;;5000405;28;20266;-48
2022/12/26 12:18:57;;;;;;;2.67;2.57;;;8.50;99.90;;;;;;5031819;28;20648;-49
2022/12/26 12:21:37;;;;;;;6.23;4.33;;;8.60;99.90;;;;;;5029754;28;20250;-49
2022/12/26 12:24:35;;;;;;;5.17;3.90;;;8.70;99.90;;;;;;5028534;28;20200;-49
2022/12/26 12:27:11;;;;;;;3.27;2.93;;;8.70;99.90;;;;;;5024087;28;20239;-48
2022/12/26 12:30:03;;;;;;;4.97;3.10;;;8.80;99.90;;;;;;5024732;28;20199;-49
2022/12/26 12:32:38;;;;;;;3.13;2.43;;;8.90;99.90;;;;;;5020365;28;20255;-49
2022/12/26 12:35:26;;;;;;;2.87;2.67;;;9.10;99.90;;;;;;5029404;28;20325;-51
2022/12/26 12:38:23;;;;;;;3.07;2.80;;;9.10;99.90;;;;;;5028281;28;20207;-49
2022/12/26 12:40:59;;;;;;;3.97;3.37;;;9.20;99.90;;;;;;5029388;28;20297;-48
2022/12/26 12:43:35;;;;;;;3.37;3.17;;;9.10;99.90;;;;;;5030916;28;20245;-49
2022/12/26 12:46:12;;;;;;;3.10;2.90;;;9.10;99.90;;;;;;5031348;28;20267;-49
2022/12/26 12:49:02;;;;;;;2.67;2.47;;;9.00;99.90;;;;;;5026306;28;20208;-50
2022/12/26 12:51:36;;;;;;;3.37;3.00;;;9.00;99.90;;;;;;5029201;28;20260;-50
2022/12/26 12:54:31;;;;;;;3.97;2.90;;;9.10;99.90;;;;;;5025226;28;20664;-51
2022/12/26 12:57:09;;;;;;;3.43;3.20;;;9.10;99.90;;;;;;5026310;28;20227;-49
2022/12/26 12:59:52;;;;;;;3.50;3.20;;;9.00;99.90;;;;;;5026717;28;20280;-49
2022/12/26 13:02:25;;;;;;;4.10;3.83;;;8.90;99.90;;;;;;5029264;28;20204;-49
2022/12/26 13:05:02;;;;;;;8.53;4.37;;;8.90;99.90;;;;;;5032596;28;20583;-50
2022/12/26 13:07:34;;;;;;;5.67;3.70;;;8.80;99.90;;;;;;5024598;28;20357;-49
2022/12/26 13:10:03;;;;;;;3.70;3.40;;;8.80;99.90;;;;;;5008454;28;20201;-49
2022/12/26 13:12:38;;;;;;;3.53;3.20;;;8.80;99.90;;;;;;5012363;28;20206;-48
2022/12/26 13:15:08;;;;;;;12.57;5.97;;;8.90;99.90;;;;;;5008215;28;20712;-49
2022/12/26 13:17:40;;;;;;;14.03;6.93;;;8.90;99.90;;;;;;5022572;28;20221;-50
2022/12/26 13:20:18;;;;;;;9.33;6.33;;;8.90;99.90;;;;;;5009486;28;20204;-50
2022/12/26 13:25:42;;;;;;;6.90;6.07;;;8.80;99.90;;;;;;5028183;28;20208;-50
2022/12/26 13:28:25;;;;;;;8.03;7.13;;;8.80;99.90;;;;;;5011511;28;20696;-48
2022/12/26 13:30:54;;;;;;;9.83;7.97;;;8.80;99.90;;;;;;5009759;28;20205;-49
2022/12/26 13:33:26;;;;;;;9.17;8.37;;;8.90;99.90;;;;;;5020032;28;20216;-50
2022/12/26 13:35:56;;;;;;;13.37;8.47;;;8.70;99.90;;;;;;5013823;28;20708;-48
2022/12/26 13:38:25;;;;;;;10.30;9.30;;;8.70;99.90;;;;;;5019466;28;20266;-50
2022/12/26 13:43:53;;;;;;;8.67;7.20;;;8.70;99.90;;;;;;5025185;28;20197;-49
2022/12/26 13:44:00;;;;;;;7.30;6.57;;;8.70;99.90;;;;;;5020115;28;20669;-50
2022/12/26 13:46:37;;;;;;;6.93;6.23;;;8.70;99.90;;;;;;5016984;28;20258;-49
2022/12/26 13:49:04;;;;;;;8.70;7.83;;;8.80;99.90;;;;;;5015055;28;20209;-49
2022/12/26 13:51:52;;;;;;;6.27;5.67;;;8.80;99.90;;;;;;5009529;28;20696;-50
2022/12/26 13:54:21;;;;;;;5.83;5.43;;;8.80;99.90;;;;;;5010642;28;20616;-50
2022/12/26 13:57:21;;;;;;;5.03;3.40;;;8.90;99.90;;;;;;5006165;28;20222;-50
2022/12/26 14:00:11;;;;;;;1.83;1.73;;;9.10;99.90;;;;;;4980438;28;20255;-48
2022/12/26 14:03:11;;;;;;;1.00;0.90;;;9.20;99.90;;;;;;5014411;28;20275;-49
2022/12/26 14:05:47;;;;;;;5.60;1.33;;;9.40;99.90;;;;;;5016734;28;20212;-50
2022/12/26 14:08:28;;;;;;;1.00;1.00;;;9.50;99.90;;;;;;5030035;28;20195;-49
2022/12/26 14:11:02;;;;;;;0.97;0.97;;;9.50;99.90;;;;;;5026782;28;20211;-50
2022/12/26 14:13:52;;;;;;;1.40;1.40;;;9.50;99.90;;;;;;5016589;28;20204;-49
2022/12/26 14:16:28;;;;;;;0.73;0.73;;;9.50;99.90;;;;;;5029096;28;20221;-50
2022/12/26 14:19:03;;;;;;;1.40;0.70;;;9.60;99.90;;;;;;5030392;28;20581;-49
2022/12/26 14:21:39;;;;;;;0.30;0.30;;;9.60;99.90;;;;;;5022895;28;20299;-49
2022/12/26 14:24:20;;;;;;;0.50;0.40;;;9.70;99.90;;;;;;5030327;28;20616;-50
2022/12/26 14:26:58;;;;;;;0.47;0.47;;;9.60;99.90;;;;;;5021303;28;20233;-50
2022/12/26 14:29:31;;;;;;;0.60;0.60;;;9.60;99.90;;;;;;5028201;28;20300;-50
2022/12/26 14:32:12;;;;;;;1.47;1.20;;;9.50;99.90;;;;;;5012019;28;20237;-49
2022/12/26 14:35:02;;;;;;;2.40;0.80;;;9.60;99.90;;;;;;5027098;28;20200;-48
2022/12/26 14:37:41;;;;;;;0.30;0.30;;;9.60;99.90;;;;;;5026806;28;20227;-50
2022/12/26 14:40:28;;;;;;;0.53;0.53;;;9.60;99.90;;;;;;5022239;28;20291;-50
2022/12/26 14:43:26;;;;;;;3.70;1.43;;;9.60;99.90;;;;;;5029385;28;20274;-51
2022/12/26 14:45:56;;;;;;;1.40;0.50;;;9.50;99.90;;;;;;5013263;28;20224;-50
2022/12/26 14:48:47;;;;;;;0.60;0.20;;;9.40;99.90;;;;;;5025988;28;20335;-50
2022/12/26 14:51:39;;;;;;;0.20;0.20;;;9.40;99.90;;;;;;5029556;28;20373;-49
2022/12/26 14:54:45;;;;;;;0.63;0.63;;;9.30;99.90;;;;;;5024303;28;20201;-48
2022/12/26 14:57:46;;;;;;;0.40;0.17;;;9.40;99.90;;;;;;5019054;28;20231;-50
2022/12/26 15:00:31;;;;;;;0.63;0.13;;;9.40;99.90;;;;;;4959419;28;20207;-49
2022/12/26 15:03:34;;;;;;;0.10;0.10;;;9.50;99.90;;;;;;4941386;28;20210;-49
2022/12/26 15:06:38;;;;;;;0.67;0.20;;;9.60;99.90;;;;;;5006601;28;20232;-50
2022/12/26 15:09:30;;;;;;;2.63;0.20;;;9.50;99.90;;;;;;5008212;28;20201;-49
2022/12/26 15:12:19;;;;;;;0.30;0.30;;;9.30;99.90;;;;;;4979394;28;20251;-49
2022/12/26 15:15:10;;;;;;;0.83;0.60;;;9.50;99.90;;;;;;5007490;28;20271;-48
2022/12/26 15:17:46;;;;;;;0.50;0.50;;;9.40;99.90;;;;;;5005630;28;20791;-49
2022/12/26 15:20:47;;;;;;;0.60;0.40;;;9.30;99.90;;;;;;5009868;28;20677;-51
2022/12/26 15:23:37;;;;;;;0.40;0.40;;;9.30;99.90;;;;;;5011432;28;20214;-50
2022/12/26 15:26:31;;;;;;;0.53;0.37;;;9.20;99.90;;;;;;5005818;28;20223;-50
2022/12/26 15:29:33;;;;;;;0.40;0.40;;;9.20;99.90;;;;;;5011593;28;20201;-50
2022/12/26 15:32:09;;;;;;;1.73;1.60;;;9.10;99.90;;;;;;5027879;28;20197;-50
2022/12/26 15:35:03;;;;;;;1.90;1.63;;;9.10;99.90;;;;;;5024218;28;20648;-50
2022/12/26 15:37:56;;;;;;;1.67;1.33;;;9.10;99.90;;;;;;5024980;28;20225;-48